Time;durP1;ratioP1;P1;durP2;ratioP2;P2;SDS_P1;SDS_P2;PMS_P1;PMS_P2;Temp;Humidity;BMP_temperature;BMP_pressure;BME280_temperature;BME280_humidity;BME280_pressure;Samples;Min_cycle;Max_cycle;Signal;HPM_P1;HPM_P2
2021/08/01 00:01:37;;;;;;;13.30;5.85;;;;;;;;;;4918500;29;20090;-66
2021/08/01 00:04:04;;;;;;;9.98;5.25;;;;;;;;;;4926783;29;20058;-66
2021/08/01 00:06:30;;;;;;;14.00;5.75;;;;;;;;;;4934269;29;20051;-65
2021/08/01 00:08:57;;;;;;;6.13;4.50;;;;;;;;;;4932618;29;20140;-65
2021/08/01 00:11:24;;;;;;;6.55;4.80;;;;;;;;;;4934108;29;20107;-66
2021/08/01 00:13:50;;;;;;;8.00;5.07;;;;;;;;;;4932518;29;20095;-65
2021/08/01 00:16:17;;;;;;;5.30;4.28;;;;;;;;;;4936617;29;20495;-66
2021/08/01 00:18:43;;;;;;;6.32;4.00;;;;;;;;;;4937246;29;20135;-65
2021/08/01 00:21:10;;;;;;;10.25;4.75;;;;;;;;;;4937547;29;20079;-66
2021/08/01 00:23:36;;;;;;;9.25;5.07;;;;;;;;;;4936108;29;20079;-65
2021/08/01 00:26:03;;;;;;;5.28;4.30;;;;;;;;;;4937174;29;20087;-66
2021/08/01 00:28:30;;;;;;;7.88;5.00;;;;;;;;;;4935985;29;20099;-66
2021/08/01 00:30:59;;;;;;;7.00;4.28;;;;;;;;;;4932601;29;20098;-66
2021/08/01 00:33:26;;;;;;;6.88;4.55;;;;;;;;;;4917918;29;20052;-65
2021/08/01 00:35:52;;;;;;;10.50;5.22;;;;;;;;;;4916781;29;20084;-65
2021/08/01 00:38:19;;;;;;;9.48;5.10;;;;;;;;;;4916901;29;20088;-66
2021/08/01 00:40:45;;;;;;;7.07;4.95;;;;;;;;;;4917887;29;20515;-65
2021/08/01 00:43:12;;;;;;;7.80;4.78;;;;;;;;;;4918056;29;20076;-65
2021/08/01 00:45:39;;;;;;;9.25;4.82;;;;;;;;;;4923496;29;20139;-66
2021/08/01 00:48:09;;;;;;;8.05;4.50;;;;;;;;;;4920001;29;20077;-66
2021/08/01 00:50:36;;;;;;;5.72;4.38;;;;;;;;;;4936686;29;20087;-66
2021/08/01 00:53:02;;;;;;;10.00;5.57;;;;;;;;;;4936695;29;20134;-65
2021/08/01 00:55:29;;;;;;;9.30;5.63;;;;;;;;;;4935657;29;20212;-65
2021/08/01 00:57:56;;;;;;;9.70;5.68;;;;;;;;;;4936586;29;20091;-66
2021/08/01 01:00:35;;;;;;;8.07;5.32;;;;;;;;;;4931268;29;20090;-65
2021/08/01 01:03:11;;;;;;;9.00;5.30;;;;;;;;;;4902586;29;20103;-65
2021/08/01 01:05:52;;;;;;;6.95;5.90;;;;;;;;;;4901573;29;20060;-65
2021/08/01 01:08:26;;;;;;;9.93;5.90;;;;;;;;;;4902359;29;20093;-65
2021/08/01 01:10:54;;;;;;;8.45;6.22;;;;;;;;;;4901019;29;20088;-66
2021/08/01 01:13:27;;;;;;;10.77;5.97;;;;;;;;;;4900664;29;20115;-66
2021/08/01 01:15:56;;;;;;;8.45;6.25;;;;;;;;;;4901198;29;20368;-66
2021/08/01 01:18:28;;;;;;;10.10;5.80;;;;;;;;;;4921379;29;20103;-66
2021/08/01 01:21:22;;;;;;;12.77;6.20;;;;;;;;;;4918440;29;20134;-66
2021/08/01 01:24:13;;;;;;;8.45;6.05;;;;;;;;;;4934608;29;20102;-66
2021/08/01 01:26:55;;;;;;;13.05;7.20;;;;;;;;;;4933977;29;20056;-66
2021/08/01 01:29:28;;;;;;;11.55;6.20;;;;;;;;;;4936022;29;20083;-66
2021/08/01 01:32:04;;;;;;;8.05;7.22;;;;;;;;;;4935867;29;20134;-66
2021/08/01 01:34:37;;;;;;;8.18;5.97;;;;;;;;;;4920144;29;20110;-66
2021/08/01 01:37:05;;;;;;;11.10;6.30;;;;;;;;;;4935879;29;20115;-66
2021/08/01 01:39:34;;;;;;;11.18;7.55;;;;;;;;;;4918960;29;20534;-66
2021/08/01 01:42:00;;;;;;;9.15;5.97;;;;;;;;;;4934613;29;20079;-66
2021/08/01 01:44:27;;;;;;;9.52;6.75;;;;;;;;;;4918920;29;20083;-66
2021/08/01 01:46:53;;;;;;;11.02;7.80;;;;;;;;;;4918781;29;20482;-66
2021/08/01 01:49:20;;;;;;;11.93;7.03;;;;;;;;;;4918917;29;20078;-66
2021/08/01 01:51:47;;;;;;;11.38;8.13;;;;;;;;;;4934214;29;20073;-66
2021/08/01 01:54:13;;;;;;;14.75;10.15;;;;;;;;;;4928744;29;20084;-66
2021/08/01 01:56:40;;;;;;;15.23;8.85;;;;;;;;;;4915425;29;20158;-66
2021/08/01 01:59:07;;;;;;;11.18;8.18;;;;;;;;;;4915133;29;20556;-66
2021/08/01 02:01:35;;;;;;;10.85;6.63;;;;;;;;;;4916829;29;20090;-66
2021/08/01 02:04:02;;;;;;;12.45;7.20;;;;;;;;;;4915072;29;20059;-66
2021/08/01 02:06:29;;;;;;;11.00;7.57;;;;;;;;;;4916518;29;20092;-66
2021/08/01 02:09:25;;;;;;;9.32;7.38;;;;;;;;;;4916065;29;20088;-66
2021/08/01 02:11:56;;;;;;;8.43;7.53;;;;;;;;;;4916158;29;20048;-66
2021/08/01 02:14:27;;;;;;;11.13;6.80;;;;;;;;;;4915078;29;20519;-66
2021/08/01 02:16:55;;;;;;;11.55;7.50;;;;;;;;;;4884439;29;20047;-66
2021/08/01 02:19:21;;;;;;;8.68;6.35;;;;;;;;;;4899582;29;20062;-66
2021/08/01 02:21:48;;;;;;;6.72;5.90;;;;;;;;;;4899374;29;20483;-66
2021/08/01 02:24:14;;;;;;;8.95;6.10;;;;;;;;;;4899506;29;20079;-66
2021/08/01 02:26:41;;;;;;;8.60;6.22;;;;;;;;;;4899549;29;20088;-66
2021/08/01 02:29:07;;;;;;;8.38;5.75;;;;;;;;;;4898874;29;20091;-66
2021/08/01 02:31:34;;;;;;;7.38;5.60;;;;;;;;;;4899481;29;20079;-65
2021/08/01 02:34:01;;;;;;;10.70;6.55;;;;;;;;;;4914615;29;20056;-66
2021/08/01 02:36:27;;;;;;;11.48;6.32;;;;;;;;;;4914877;29;20083;-66
2021/08/01 02:38:56;;;;;;;10.52;6.10;;;;;;;;;;4914270;29;20095;-66
2021/08/01 02:41:34;;;;;;;7.45;6.15;;;;;;;;;;4914955;29;20096;-66
2021/08/01 02:44:14;;;;;;;9.50;6.53;;;;;;;;;;4898845;29;20087;-66
2021/08/01 02:46:40;;;;;;;9.77;6.47;;;;;;;;;;4899531;29;20107;-66
2021/08/01 02:49:11;;;;;;;9.95;6.40;;;;;;;;;;4899029;29;20612;-66
2021/08/01 02:51:37;;;;;;;7.82;6.53;;;;;;;;;;4906673;29;20130;-66
2021/08/01 02:54:04;;;;;;;9.25;6.68;;;;;;;;;;4933355;29;20478;-66
2021/08/01 02:56:32;;;;;;;15.10;7.03;;;;;;;;;;4933477;29;20091;-66
2021/08/01 03:01:31;;;;;;;7.50;6.15;;;;;;;;;;4876093;29;20077;-70
2021/08/01 03:03:58;;;;;;;9.30;7.60;;;;;;;;;;4877924;29;20311;-70
2021/08/01 03:06:32;;;;;;;9.32;6.90;;;;;;;;;;4877983;29;20085;-70
2021/08/01 03:09:03;;;;;;;9.82;7.00;;;;;;;;;;4862557;29;20068;-69
2021/08/01 03:11:34;;;;;;;10.43;7.25;;;;;;;;;;4859863;29;20050;-70
2021/08/01 03:14:01;;;;;;;10.75;7.38;;;;;;;;;;4859103;29;20053;-70
2021/08/01 03:16:28;;;;;;;10.63;7.35;;;;;;;;;;4859628;29;20085;-70
2021/08/01 03:18:54;;;;;;;11.93;7.15;;;;;;;;;;4859368;29;20098;-70
2021/08/01 03:21:21;;;;;;;12.07;7.88;;;;;;;;;;4859704;29;20084;-69
2021/08/01 03:23:48;;;;;;;13.75;7.43;;;;;;;;;;4859176;29;20174;-70
2021/08/01 03:26:14;;;;;;;9.70;7.55;;;;;;;;;;4859546;29;20053;-70
2021/08/01 03:28:41;;;;;;;14.23;8.30;;;;;;;;;;4859373;29;20500;-70
2021/08/01 03:31:07;;;;;;;13.82;7.57;;;;;;;;;;4859320;29;20144;-70
2021/08/01 03:33:34;;;;;;;10.77;7.95;;;;;;;;;;4859269;29;20049;-70
2021/08/01 03:36:00;;;;;;;11.73;7.28;;;;;;;;;;4859136;29;20085;-70
2021/08/01 03:38:28;;;;;;;15.25;7.80;;;;;;;;;;4859244;29;20058;-70
2021/08/01 03:40:55;;;;;;;14.70;7.57;;;;;;;;;;4859296;29;20433;-69
2021/08/01 03:43:22;;;;;;;13.63;8.45;;;;;;;;;;4859160;29;20125;-69
2021/08/01 03:45:48;;;;;;;14.18;7.50;;;;;;;;;;4859173;29;20100;-70
2021/08/01 03:48:15;;;;;;;9.98;7.70;;;;;;;;;;4859159;29;20136;-70
2021/08/01 03:50:41;;;;;;;13.75;8.20;;;;;;;;;;4861204;29;20482;-70
2021/08/01 03:53:08;;;;;;;9.43;7.88;;;;;;;;;;4862466;29;20118;-70
2021/08/01 03:55:34;;;;;;;11.95;8.00;;;;;;;;;;4862806;29;20101;-70
2021/08/01 03:58:01;;;;;;;13.55;7.85;;;;;;;;;;4862700;29;20096;-70
2021/08/01 04:00:27;;;;;;;10.55;8.20;;;;;;;;;;4862518;29;20085;-70
2021/08/01 04:02:54;;;;;;;10.77;7.53;;;;;;;;;;4862369;29;20535;-70
2021/08/01 04:05:21;;;;;;;11.32;7.43;;;;;;;;;;4862623;29;20652;-70
2021/08/01 04:07:47;;;;;;;12.23;7.90;;;;;;;;;;4862461;29;20136;-70
2021/08/01 04:10:14;;;;;;;10.73;7.15;;;;;;;;;;4862364;29;20104;-69
2021/08/01 04:12:40;;;;;;;14.10;8.32;;;;;;;;;;4862196;29;20105;-70
2021/08/01 04:15:08;;;;;;;10.50;7.82;;;;;;;;;;4862174;29;20109;-69
2021/08/01 04:17:34;;;;;;;8.52;7.07;;;;;;;;;;4862332;29;20248;-70
2021/08/01 04:20:01;;;;;;;10.68;7.18;;;;;;;;;;4862050;29;20057;-70
2021/08/01 04:22:27;;;;;;;10.40;7.88;;;;;;;;;;4861700;29;20081;-70
2021/08/01 04:24:54;;;;;;;13.73;8.25;;;;;;;;;;4861994;29;20140;-71
2021/08/01 04:27:20;;;;;;;10.65;7.50;;;;;;;;;;4862279;29;20113;-70
2021/08/01 04:29:47;;;;;;;14.02;7.95;;;;;;;;;;4861731;29;20112;-70
2021/08/01 04:32:13;;;;;;;11.73;8.00;;;;;;;;;;4862051;29;20486;-70
2021/08/01 04:34:40;;;;;;;10.52;7.57;;;;;;;;;;4861713;29;20049;-70
2021/08/01 04:37:06;;;;;;;13.25;8.57;;;;;;;;;;4862053;29;20089;-70
2021/08/01 04:39:33;;;;;;;9.57;7.60;;;;;;;;;;4861799;29;20112;-70
2021/08/01 04:41:59;;;;;;;8.98;7.47;;;;;;;;;;4861670;29;20097;-70
2021/08/01 04:44:26;;;;;;;11.98;7.65;;;;;;;;;;4860510;29;20418;-70
2021/08/01 04:46:52;;;;;;;10.98;7.88;;;;;;;;;;4861838;29;20137;-70
2021/08/01 04:49:19;;;;;;;12.20;7.93;;;;;;;;;;4861648;29;20540;-69
2021/08/01 04:51:45;;;;;;;11.32;8.43;;;;;;;;;;4861654;29;20489;-70
2021/08/01 04:54:12;;;;;;;10.57;7.78;;;;;;;;;;4861571;29;20093;-70
2021/08/01 04:56:43;;;;;;;12.70;8.77;;;;;;;;;;4861593;29;20081;-70
2021/08/01 04:59:10;;;;;;;10.05;8.13;;;;;;;;;;4861169;29;20089;-70
2021/08/01 05:01:36;;;;;;;10.05;8.38;;;;;;;;;;4861228;29;20107;-70
2021/08/01 05:04:03;;;;;;;9.73;8.27;;;;;;;;;;4861348;29;20164;-69
2021/08/01 05:06:30;;;;;;;15.07;8.32;;;;;;;;;;4861486;29;20085;-70
2021/08/01 05:08:56;;;;;;;15.00;8.43;;;;;;;;;;4861275;29;20104;-70
2021/08/01 05:11:23;;;;;;;12.18;7.53;;;;;;;;;;4861230;29;20085;-71
2021/08/01 05:13:49;;;;;;;8.15;7.00;;;;;;;;;;4861036;29;20132;-69
2021/08/01 05:16:17;;;;;;;12.50;7.47;;;;;;;;;;4861256;29;20089;-70
2021/08/01 05:18:44;;;;;;;8.27;7.15;;;;;;;;;;4861220;29;20113;-70
2021/08/01 05:21:11;;;;;;;9.68;7.05;;;;;;;;;;4861219;29;20484;-70
2021/08/01 05:23:38;;;;;;;10.35;6.95;;;;;;;;;;4861010;29;20081;-70
2021/08/01 05:26:04;;;;;;;13.77;8.30;;;;;;;;;;4860737;29;20084;-70
2021/08/01 05:28:31;;;;;;;10.95;7.47;;;;;;;;;;4860991;29;20053;-70
2021/08/01 05:30:57;;;;;;;9.32;7.30;;;;;;;;;;4860833;29;20061;-70
2021/08/01 05:33:24;;;;;;;9.27;7.03;;;;;;;;;;4860631;29;20042;-70
2021/08/01 05:35:50;;;;;;;9.27;7.90;;;;;;;;;;4860069;29;20100;-70
2021/08/01 05:38:17;;;;;;;8.63;7.10;;;;;;;;;;4857968;29;20474;-70
2021/08/01 05:40:46;;;;;;;8.82;6.85;;;;;;;;;;4860568;29;20081;-70
2021/08/01 05:43:13;;;;;;;10.80;7.65;;;;;;;;;;4860480;29;20092;-70
2021/08/01 05:45:40;;;;;;;7.45;6.40;;;;;;;;;;4860865;29;20071;-70
2021/08/01 05:48:06;;;;;;;10.35;7.25;;;;;;;;;;4860569;29;20137;-69
2021/08/01 05:50:33;;;;;;;9.57;6.95;;;;;;;;;;4860245;29;20088;-70
2021/08/01 05:52:59;;;;;;;9.30;7.15;;;;;;;;;;4860447;29;20096;-70
2021/08/01 05:55:26;;;;;;;10.70;7.22;;;;;;;;;;4860392;29;20143;-70
2021/08/01 05:57:52;;;;;;;10.52;6.45;;;;;;;;;;4860075;29;20501;-70
2021/08/01 06:00:19;;;;;;;8.20;6.28;;;;;;;;;;4860026;29;20132;-70
2021/08/01 06:02:45;;;;;;;7.93;5.75;;;;;;;;;;4859949;29;20089;-69
2021/08/01 06:05:12;;;;;;;8.48;6.55;;;;;;;;;;4845554;29;20086;-69
2021/08/01 06:07:39;;;;;;;8.40;6.88;;;;;;;;;;4843793;29;20085;-69
2021/08/01 06:10:06;;;;;;;9.18;6.30;;;;;;;;;;4860276;29;20111;-69
2021/08/01 06:12:32;;;;;;;7.30;5.55;;;;;;;;;;4859626;29;20057;-69
2021/08/01 06:15:00;;;;;;;7.47;5.65;;;;;;;;;;4859069;29;20597;-69
2021/08/01 06:17:26;;;;;;;9.43;5.78;;;;;;;;;;4860262;29;20053;-69
2021/08/01 06:19:54;;;;;;;7.63;6.00;;;;;;;;;;4859713;29;20140;-69
2021/08/01 06:22:22;;;;;;;8.35;6.15;;;;;;;;;;4860007;29;20133;-69
2021/08/01 06:24:49;;;;;;;8.35;5.60;;;;;;;;;;4859945;29;20474;-69
2021/08/01 06:27:16;;;;;;;7.60;6.32;;;;;;;;;;4859020;29;20053;-68
2021/08/01 06:29:42;;;;;;;8.13;5.85;;;;;;;;;;4860044;29;20133;-69
2021/08/01 06:32:09;;;;;;;12.52;6.95;;;;;;;;;;4856952;29;20097;-68
2021/08/01 06:34:36;;;;;;;8.88;6.32;;;;;;;;;;4857800;29;20137;-68
2021/08/01 06:37:02;;;;;;;10.52;6.72;;;;;;;;;;4857657;29;20497;-68
2021/08/01 06:39:29;;;;;;;8.73;5.88;;;;;;;;;;4857829;29;20521;-68
2021/08/01 06:41:55;;;;;;;10.60;6.80;;;;;;;;;;4857780;29;20100;-68
2021/08/01 06:44:22;;;;;;;8.88;6.78;;;;;;;;;;4857311;29;20084;-68
2021/08/01 06:46:48;;;;;;;9.35;6.43;;;;;;;;;;4857524;29;20133;-68
2021/08/01 06:49:15;;;;;;;7.30;6.18;;;;;;;;;;4857771;29;20087;-68
2021/08/01 06:51:47;;;;;;;7.47;5.65;;;;;;;;;;4857681;29;20092;-68
2021/08/01 06:54:13;;;;;;;6.85;6.10;;;;;;;;;;4857713;29;20128;-68
2021/08/01 06:56:40;;;;;;;8.50;6.18;;;;;;;;;;4857236;29;20168;-68
2021/08/01 06:59:06;;;;;;;7.22;5.60;;;;;;;;;;4857351;29;20092;-68
2021/08/01 07:01:33;;;;;;;7.20;5.50;;;;;;;;;;4857617;29;20168;-69
2021/08/01 07:04:00;;;;;;;7.88;5.90;;;;;;;;;;4857473;29;20057;-68
2021/08/01 07:06:27;;;;;;;9.02;5.57;;;;;;;;;;4857454;29;20092;-68
2021/08/01 07:08:53;;;;;;;7.05;5.95;;;;;;;;;;4857540;29;20096;-68
2021/08/01 07:11:20;;;;;;;7.32;5.55;;;;;;;;;;4857079;29;20113;-69
2021/08/01 07:13:48;;;;;;;6.82;5.28;;;;;;;;;;4857193;29;20488;-69
2021/08/01 07:16:15;;;;;;;6.43;5.47;;;;;;;;;;4857337;29;20494;-69
2021/08/01 07:18:41;;;;;;;6.22;5.38;;;;;;;;;;4849865;29;20062;-68
2021/08/01 07:21:08;;;;;;;7.78;5.18;;;;;;;;;;4845209;29;20092;-68
2021/08/01 07:23:34;;;;;;;6.45;5.63;;;;;;;;;;4855325;29;20268;-68
2021/08/01 07:26:01;;;;;;;7.07;6.07;;;;;;;;;;4856644;29;20093;-68
2021/08/01 07:28:28;;;;;;;8.90;6.20;;;;;;;;;;4860341;29;20561;-67
2021/08/01 07:30:54;;;;;;;9.15;5.97;;;;;;;;;;4859958;29;20081;-65
2021/08/01 07:33:23;;;;;;;6.93;5.43;;;;;;;;;;4854133;29;20201;-73
2021/08/01 07:35:49;;;;;;;6.80;6.07;;;;;;;;;;4859629;29;20046;-76
2021/08/01 07:38:16;;;;;;;6.75;6.13;;;;;;;;;;4845225;29;20421;-72
2021/08/01 07:40:42;;;;;;;7.60;6.55;;;;;;;;;;4859826;29;20076;-65
2021/08/01 07:43:09;;;;;;;7.85;6.40;;;;;;;;;;4841836;29;20088;-65
2021/08/01 07:45:37;;;;;;;9.40;6.20;;;;;;;;;;4860918;29;20053;-67
2021/08/01 07:48:04;;;;;;;9.68;6.85;;;;;;;;;;4859523;29;20088;-70
2021/08/01 07:50:31;;;;;;;12.07;7.32;;;;;;;;;;4859512;29;20077;-71
2021/08/01 07:52:57;;;;;;;8.32;6.28;;;;;;;;;;4842047;29;20136;-71
2021/08/01 07:55:24;;;;;;;8.25;6.38;;;;;;;;;;4860335;29;20084;-74
2021/08/01 07:57:50;;;;;;;9.68;6.35;;;;;;;;;;4841296;29;20057;-71
2021/08/01 08:00:17;;;;;;;6.78;6.07;;;;;;;;;;4859543;29;20136;-73
2021/08/01 08:02:44;;;;;;;7.90;5.63;;;;;;;;;;4844494;29;20085;-73
2021/08/01 08:05:13;;;;;;;7.35;5.75;;;;;;;;;;4864563;29;20046;-75
2021/08/01 08:07:39;;;;;;;7.32;5.57;;;;;;;;;;4860385;29;20053;-70
2021/08/01 08:10:07;;;;;;;9.35;5.70;;;;;;;;;;4860192;29;20466;-76
2021/08/01 08:12:33;;;;;;;7.35;5.82;;;;;;;;;;4860225;29;20360;-72
2021/08/01 08:15:01;;;;;;;7.13;5.78;;;;;;;;;;4861346;29;20049;-65
2021/08/01 08:17:33;;;;;;;7.07;5.35;;;;;;;;;;4861418;29;20057;-66
2021/08/01 08:20:01;;;;;;;8.70;5.20;;;;;;;;;;4861125;29;20053;-67
2021/08/01 08:22:28;;;;;;;10.18;5.80;;;;;;;;;;4860907;29;20102;-67
2021/08/01 08:24:54;;;;;;;8.45;5.63;;;;;;;;;;4861659;29;20461;-75
2021/08/01 08:27:21;;;;;;;6.10;5.50;;;;;;;;;;4860805;29;20089;-72
2021/08/01 08:29:48;;;;;;;6.55;5.47;;;;;;;;;;4860398;29;20092;-72
2021/08/01 08:32:14;;;;;;;6.43;5.75;;;;;;;;;;4859830;29;20098;-72
2021/08/01 08:34:41;;;;;;;7.05;4.97;;;;;;;;;;4857625;29;20505;-74
2021/08/01 08:37:09;;;;;;;8.32;4.97;;;;;;;;;;4858739;29;20081;-74
2021/08/01 08:39:35;;;;;;;6.05;4.75;;;;;;;;;;4859830;29;20049;-73
2021/08/01 08:42:02;;;;;;;6.55;4.43;;;;;;;;;;4862192;29;20496;-71
2021/08/01 08:44:29;;;;;;;5.28;4.78;;;;;;;;;;4860837;29;20058;-73
2021/08/01 08:46:56;;;;;;;5.70;5.10;;;;;;;;;;4859763;29;20478;-74
2021/08/01 08:49:22;;;;;;;7.88;4.55;;;;;;;;;;4860153;29;20102;-73
2021/08/01 08:51:53;;;;;;;6.93;4.88;;;;;;;;;;4842542;29;20084;-76
2021/08/01 08:54:24;;;;;;;6.95;4.93;;;;;;;;;;4859260;29;20140;-70
2021/08/01 08:56:50;;;;;;;6.25;4.65;;;;;;;;;;4859445;29;20126;-65
2021/08/01 08:59:18;;;;;;;6.80;4.70;;;;;;;;;;4859317;29;20089;-65
2021/08/01 09:01:45;;;;;;;5.00;4.50;;;;;;;;;;4950247;23;20040;-67
2021/08/01 09:04:12;;;;;;;6.82;4.72;;;;;;;;;;4935017;29;20043;-67
2021/08/01 09:06:39;;;;;;;5.82;4.75;;;;;;;;;;4918421;29;20048;-68
2021/08/01 09:09:05;;;;;;;5.65;4.50;;;;;;;;;;4918349;29;20393;-69
2021/08/01 09:11:32;;;;;;;6.45;4.35;;;;;;;;;;4934770;29;20052;-68
2021/08/01 09:13:58;;;;;;;5.95;4.50;;;;;;;;;;4933290;29;20083;-68
2021/08/01 09:16:45;;;;;;;6.07;4.93;;;;;;;;;;4935242;29;20502;-68
2021/08/01 09:19:34;;;;;;;5.38;4.30;;;;;;;;;;4932041;29;20062;-71
2021/08/01 09:22:15;;;;;;;8.40;4.63;;;;;;;;;;4935130;29;20059;-72
2021/08/01 09:24:47;;;;;;;5.30;3.55;;;;;;;;;;4933281;29;20044;-70
2021/08/01 09:27:31;;;;;;;5.28;3.40;;;;;;;;;;4935158;29;20551;-69
2021/08/01 09:29:58;;;;;;;6.10;3.50;;;;;;;;;;4932184;29;20502;-69
2021/08/01 09:32:25;;;;;;;4.63;3.20;;;;;;;;;;4933641;29;20083;-70
2021/08/01 09:34:52;;;;;;;7.45;3.85;;;;;;;;;;4934284;29;20047;-72
2021/08/01 09:37:33;;;;;;;4.28;3.10;;;;;;;;;;4935131;29;20075;-70
2021/08/01 09:40:11;;;;;;;4.10;3.08;;;;;;;;;;4934712;29;20057;-70
2021/08/01 09:42:42;;;;;;;4.07;2.90;;;;;;;;;;4933460;29;20052;-68
2021/08/01 09:45:14;;;;;;;2.60;2.40;;;;;;;;;;4933532;29;20058;-67
2021/08/01 09:47:41;;;;;;;2.97;2.53;;;;;;;;;;4934643;29;20051;-69
2021/08/01 09:50:08;;;;;;;3.08;2.72;;;;;;;;;;4930345;29;20055;-69
2021/08/01 09:52:34;;;;;;;3.97;3.65;;;;;;;;;;4934567;29;20464;-71
2021/08/01 09:55:02;;;;;;;3.58;3.10;;;;;;;;;;4917634;29;20051;-68
2021/08/01 09:57:28;;;;;;;4.55;3.28;;;;;;;;;;4933454;29;20044;-68
2021/08/01 10:00:09;;;;;;;4.47;2.78;;;;;;;;;;4933920;29;20475;-70
2021/08/01 10:02:39;;;;;;;4.53;3.47;;;;;;;;;;4933690;29;20506;-68
2021/08/01 10:05:33;;;;;;;3.42;3.00;;;;;;;;;;4932932;29;20043;-68
2021/08/01 10:08:00;;;;;;;4.50;3.50;;;;;;;;;;4932104;29;20060;-67
2021/08/01 10:10:27;;;;;;;6.50;4.53;;;;;;;;;;4934459;29;20094;-67
2021/08/01 10:12:58;;;;;;;5.40;3.88;;;;;;;;;;4933742;29;20051;-72
2021/08/01 10:15:25;;;;;;;5.53;4.20;;;;;;;;;;4932892;29;20095;-67
2021/08/01 10:17:52;;;;;;;5.78;4.00;;;;;;;;;;4933695;29;20087;-68
2021/08/01 10:20:19;;;;;;;4.63;4.13;;;;;;;;;;4933465;29;20051;-70
2021/08/01 10:22:46;;;;;;;6.93;4.22;;;;;;;;;;4932638;29;20087;-72
2021/08/01 10:25:22;;;;;;;5.00;4.10;;;;;;;;;;4917144;29;20082;-68
2021/08/01 10:27:53;;;;;;;5.07;4.38;;;;;;;;;;4916392;29;20475;-68
2021/08/01 10:30:21;;;;;;;4.72;3.63;;;;;;;;;;4931216;29;20115;-68
2021/08/01 10:32:52;;;;;;;3.05;2.85;;;;;;;;;;4932089;29;20044;-68
2021/08/01 10:35:21;;;;;;;6.15;3.60;;;;;;;;;;4930904;29;20083;-67
2021/08/01 10:38:01;;;;;;;4.35;3.00;;;;;;;;;;4933294;29;20102;-68
2021/08/01 10:40:33;;;;;;;6.28;3.95;;;;;;;;;;4927855;29;20083;-68
2021/08/01 10:43:01;;;;;;;3.70;2.78;;;;;;;;;;4931210;29;20058;-68
2021/08/01 10:45:28;;;;;;;8.30;3.25;;;;;;;;;;4930296;29;20329;-68
2021/08/01 10:47:54;;;;;;;6.30;4.55;;;;;;;;;;4930294;29;20051;-69
2021/08/01 10:50:31;;;;;;;3.35;3.05;;;;;;;;;;4929578;29;20082;-68
2021/08/01 10:53:19;;;;;;;4.53;2.85;;;;;;;;;;4913386;29;20078;-68
2021/08/01 10:55:49;;;;;;;3.15;2.80;;;;;;;;;;4930423;29;20123;-68
2021/08/01 10:58:17;;;;;;;3.75;2.95;;;;;;;;;;4931424;29;20098;-68
2021/08/01 11:01:07;;;;;;;4.13;3.10;;;;;;;;;;4927966;29;20048;-68
2021/08/01 11:03:35;;;;;;;5.38;3.20;;;;;;;;;;4928915;29;20079;-67
2021/08/01 11:06:03;;;;;;;5.38;3.30;;;;;;;;;;4930902;29;20136;-67
2021/08/01 11:08:31;;;;;;;4.43;2.85;;;;;;;;;;4911169;29;20139;-69
2021/08/01 11:11:09;;;;;;;4.15;2.70;;;;;;;;;;4908836;29;20051;-70
2021/08/01 11:13:42;;;;;;;3.03;2.55;;;;;;;;;;4932613;29;20091;-70
2021/08/01 11:16:10;;;;;;;;;;;;;;;;;;4932403;29;20088;-70
2021/08/01 11:18:41;;;;;;;4.00;2.33;;;;;;;;;;4932969;29;19982;-70
2021/08/01 11:21:09;;;;;;;3.92;3.03;;;;;;;;;;4933022;29;20079;-70
2021/08/01 11:23:45;;;;;;;3.20;2.60;;;;;;;;;;4933072;29;20059;-69
2021/08/01 11:26:18;;;;;;;3.90;3.20;;;;;;;;;;4933151;29;20087;-69
2021/08/01 11:28:47;;;;;;;6.50;3.65;;;;;;;;;;4932990;29;20048;-70
2021/08/01 11:31:23;;;;;;;3.63;2.33;;;;;;;;;;4931705;29;20098;-71
2021/08/01 11:33:51;;;;;;;6.63;2.63;;;;;;;;;;4932807;29;20091;-74
2021/08/01 11:36:19;;;;;;;4.18;3.10;;;;;;;;;;4933329;29;20079;-71
2021/08/01 11:38:52;;;;;;;2.95;2.55;;;;;;;;;;4931808;29;20502;-68
2021/08/01 11:41:33;;;;;;;7.93;2.83;;;;;;;;;;4932939;29;20569;-72
2021/08/01 11:44:20;;;;;;;3.70;2.50;;;;;;;;;;4933052;29;20119;-68
2021/08/01 11:46:57;;;;;;;2.80;2.30;;;;;;;;;;4931618;29;20475;-68
2021/08/01 11:49:31;;;;;;;3.95;2.40;;;;;;;;;;4932581;29;20059;-70
2021/08/01 11:52:00;;;;;;;3.47;2.45;;;;;;;;;;4928333;29;20083;-70
2021/08/01 11:54:32;;;;;;;3.45;2.00;;;;;;;;;;4932569;29;20051;-69
2021/08/01 11:57:14;;;;;;;4.25;2.55;;;;;;;;;;4933034;29;20499;-69
2021/08/01 11:59:42;;;;;;;2.75;2.00;;;;;;;;;;4932605;29;20076;-72
2021/08/01 12:02:12;;;;;;;5.00;2.38;;;;;;;;;;4931214;29;20047;-69
2021/08/01 12:04:44;;;;;;;3.67;2.53;;;;;;;;;;4932711;29;20044;-69
2021/08/01 12:07:10;;;;;;;3.80;2.13;;;;;;;;;;4926422;29;20577;-70
2021/08/01 12:09:38;;;;;;;2.25;1.98;;;;;;;;;;4932406;29;20467;-69
2021/08/01 12:12:07;;;;;;;3.67;2.08;;;;;;;;;;4934860;29;20079;-69
2021/08/01 12:14:35;;;;;;;4.55;2.60;;;;;;;;;;4934991;29;20087;-70
2021/08/01 12:17:09;;;;;;;3.03;2.08;;;;;;;;;;4935027;29;20058;-68
2021/08/01 12:19:38;;;;;;;2.17;1.90;;;;;;;;;;4935960;29;20094;-70
2021/08/01 12:22:34;;;;;;;4.35;2.00;;;;;;;;;;4936012;29;20133;-72
2021/08/01 12:25:03;;;;;;;4.15;2.40;;;;;;;;;;4930401;29;20055;-69
2021/08/01 12:27:34;;;;;;;3.17;2.15;;;;;;;;;;4934343;29;20087;-70
2021/08/01 12:30:04;;;;;;;2.88;2.17;;;;;;;;;;4935309;29;20107;-66
2021/08/01 12:32:31;;;;;;;3.38;1.98;;;;;;;;;;4935586;29;20135;-65
2021/08/01 12:35:18;;;;;;;5.50;2.45;;;;;;;;;;4935287;29;20067;-65
2021/08/01 12:38:05;;;;;;;4.60;2.00;;;;;;;;;;4935530;29;20134;-66
2021/08/01 12:40:35;;;;;;;3.65;1.92;;;;;;;;;;4933850;29;20059;-65
2021/08/01 12:43:08;;;;;;;2.40;2.00;;;;;;;;;;4934441;29;20051;-66
2021/08/01 12:45:35;;;;;;;3.33;2.25;;;;;;;;;;4935444;29;20082;-66
2021/08/01 12:48:16;;;;;;;3.50;2.50;;;;;;;;;;4935405;29;20421;-66
2021/08/01 12:50:46;;;;;;;2.40;2.20;;;;;;;;;;4934316;29;20474;-67
2021/08/01 12:53:13;;;;;;;4.22;2.55;;;;;;;;;;4935281;29;20090;-65
2021/08/01 12:55:40;;;;;;;3.40;2.42;;;;;;;;;;4934668;29;20082;-66
2021/08/01 12:58:11;;;;;;;3.97;2.15;;;;;;;;;;4935165;29;20488;-67
2021/08/01 13:01:03;;;;;;;4.40;2.25;;;;;;;;;;4931527;29;20075;-66
2021/08/01 13:03:32;;;;;;;2.95;2.33;;;;;;;;;;4935181;29;20138;-66
2021/08/01 13:05:59;;;;;;;4.57;2.15;;;;;;;;;;4933836;29;20083;-66
2021/08/01 13:08:46;;;;;;;2.95;1.85;;;;;;;;;;4935295;29;20135;-66
2021/08/01 13:11:14;;;;;;;6.30;2.40;;;;;;;;;;4935434;29;20087;-67
2021/08/01 13:13:50;;;;;;;4.43;2.55;;;;;;;;;;4935076;29;20090;-66
2021/08/01 13:16:17;;;;;;;2.95;1.95;;;;;;;;;;4933247;29;20452;-67
2021/08/01 13:18:43;;;;;;;3.53;2.60;;;;;;;;;;4935306;29;20102;-66
2021/08/01 13:21:17;;;;;;;3.45;2.50;;;;;;;;;;4934902;29;20051;-66
2021/08/01 13:23:53;;;;;;;2.58;2.22;;;;;;;;;;4934944;29;20079;-66
2021/08/01 13:26:25;;;;;;;2.90;2.50;;;;;;;;;;4933863;29;20130;-66
2021/08/01 13:29:00;;;;;;;4.43;2.28;;;;;;;;;;4934637;29;20139;-66
2021/08/01 13:31:36;;;;;;;2.38;1.85;;;;;;;;;;4934265;29;20079;-66
2021/08/01 13:34:05;;;;;;;5.00;2.47;;;;;;;;;;4934664;29;20090;-66
2021/08/01 13:36:57;;;;;;;4.63;2.25;;;;;;;;;;4933549;29;20474;-66
2021/08/01 13:39:48;;;;;;;4.00;2.38;;;;;;;;;;4932062;29;20102;-66
2021/08/01 13:42:19;;;;;;;2.85;2.55;;;;;;;;;;4930483;29;20565;-66
2021/08/01 13:44:46;;;;;;;2.73;2.30;;;;;;;;;;4934228;29;20127;-66
2021/08/01 13:47:22;;;;;;;5.43;2.90;;;;;;;;;;4934686;29;20363;-67
2021/08/01 13:50:00;;;;;;;3.80;2.38;;;;;;;;;;4933633;29;20479;-66
2021/08/01 13:52:29;;;;;;;4.07;2.20;;;;;;;;;;4934648;29;20087;-66
2021/08/01 13:54:56;;;;;;;3.45;2.10;;;;;;;;;;4934177;29;20527;-66
2021/08/01 13:57:23;;;;;;;4.30;2.30;;;;;;;;;;4934972;29;20079;-66
2021/08/01 13:59:51;;;;;;;3.22;2.60;;;;;;;;;;4934036;29;20055;-66
2021/08/01 14:02:18;;;;;;;2.55;2.35;;;;;;;;;;4932873;29;20052;-67
2021/08/01 14:04:45;;;;;;;4.47;2.60;;;;;;;;;;4934113;29;20063;-66
2021/08/01 14:07:11;;;;;;;5.75;3.00;;;;;;;;;;4933395;29;20110;-66
2021/08/01 14:09:38;;;;;;;5.82;2.55;;;;;;;;;;4934216;29;20099;-66
2021/08/01 14:12:05;;;;;;;3.22;2.80;;;;;;;;;;4934223;29;20060;-66
2021/08/01 14:14:32;;;;;;;3.13;2.85;;;;;;;;;;4933918;29;20048;-66
2021/08/01 14:16:59;;;;;;;4.10;2.63;;;;;;;;;;4926491;29;20063;-71
2021/08/01 14:19:25;;;;;;;5.18;2.70;;;;;;;;;;4934099;29;20090;-71
2021/08/01 14:21:52;;;;;;;2.60;2.40;;;;;;;;;;4928564;29;20179;-70
2021/08/01 14:24:19;;;;;;;6.40;2.38;;;;;;;;;;4933568;29;20482;-70
2021/08/01 14:26:50;;;;;;;3.97;2.20;;;;;;;;;;4933934;29;20079;-69
2021/08/01 14:29:21;;;;;;;5.60;2.72;;;;;;;;;;4933917;29;20138;-69
2021/08/01 14:31:49;;;;;;;3.47;2.00;;;;;;;;;;4933653;29;20051;-69
2021/08/01 14:34:25;;;;;;;2.47;2.28;;;;;;;;;;4933163;29;20051;-70
2021/08/01 14:36:54;;;;;;;2.42;2.22;;;;;;;;;;4917471;29;20075;-71
2021/08/01 14:39:22;;;;;;;3.58;2.20;;;;;;;;;;4917230;29;20058;-70
2021/08/01 14:41:49;;;;;;;3.28;1.83;;;;;;;;;;4933430;29;20475;-70
2021/08/01 14:44:17;;;;;;;2.85;1.90;;;;;;;;;;4933464;29;20110;-71
2021/08/01 14:46:43;;;;;;;2.88;1.88;;;;;;;;;;4934002;29;20082;-69
2021/08/01 14:49:24;;;;;;;3.95;2.33;;;;;;;;;;4933762;29;20825;-69
2021/08/01 14:54:32;;;;;;;4.78;2.22;;;;;;;;;;4933839;29;20083;-72
2021/08/01 14:57:26;;;;;;;2.83;2.13;;;;;;;;;;4933124;29;20080;-71
2021/08/01 14:59:57;;;;;;;2.75;2.00;;;;;;;;;;4930074;29;20098;-69